createdAt,value
2018-02-10T00:01:41.301Z,10.97
2018-02-10T00:04:08.751Z,11.60
2018-02-10T00:06:36.223Z,11.97
2018-02-10T00:09:04.455Z,12.77
2018-02-10T00:11:31.934Z,11.20
2018-02-10T00:13:59.390Z,11.80
2018-02-10T00:16:26.853Z,11.60
2018-02-10T00:18:54.311Z,12.00
2018-02-10T00:21:21.775Z,11.90
2018-02-10T00:23:49.235Z,11.77
2018-02-10T00:26:16.703Z,11.10
2018-02-10T00:28:44.933Z,11.60
2018-02-10T00:31:12.405Z,12.27
2018-02-10T00:33:39.860Z,11.90
2018-02-10T00:36:07.327Z,10.77
2018-02-10T00:38:34.791Z,13.73
2018-02-10T00:41:02.281Z,12.10
2018-02-10T00:43:29.740Z,11.70
2018-02-10T00:45:57.215Z,12.70
2018-02-10T00:48:24.674Z,13.10
2018-02-10T00:50:52.136Z,12.10
2018-02-10T00:53:19.604Z,12.50
2018-02-10T00:55:47.078Z,12.03
2018-02-10T00:58:14.539Z,12.00
2018-02-10T01:00:41.993Z,12.90
2018-02-10T01:03:09.466Z,12.67
2018-02-10T01:05:36.924Z,12.80
2018-02-10T01:08:04.385Z,12.67
2018-02-10T01:10:31.856Z,13.13
2018-02-10T01:13:00.087Z,12.30
2018-02-10T01:15:27.544Z,12.73
2018-02-10T01:17:55.013Z,12.90
2018-02-10T01:20:22.469Z,12.97
2018-02-10T01:22:49.943Z,15.77
2018-02-10T01:27:52.114Z,15.60
2018-02-10T01:30:19.575Z,15.77
2018-02-10T01:32:47.093Z,15.77
2018-02-10T01:35:14.557Z,17.50
2018-02-10T01:37:42.024Z,17.27
2018-02-10T01:40:09.495Z,19.07
2018-02-10T01:42:36.965Z,18.40
2018-02-10T01:45:04.433Z,16.17
2018-02-10T01:47:31.896Z,17.80
2018-02-10T01:50:11.128Z,20.10
2018-02-10T01:52:38.593Z,20.67
2018-02-10T01:55:06.821Z,19.20
2018-02-10T01:57:34.280Z,19.43
2018-02-10T02:00:01.732Z,20.20
2018-02-10T02:02:29.204Z,18.23
2018-02-10T02:04:56.667Z,19.00
2018-02-10T02:07:24.139Z,18.10
2018-02-10T02:09:51.596Z,18.40
2018-02-10T02:12:19.056Z,16.90
2018-02-10T02:14:46.523Z,17.03
2018-02-10T02:17:13.987Z,16.60
2018-02-10T02:19:42.225Z,17.13
2018-02-10T02:22:09.679Z,15.73
2018-02-10T02:24:37.144Z,15.70
2018-02-10T02:27:04.600Z,15.00
2018-02-10T02:29:32.070Z,15.53
2018-02-10T02:31:59.537Z,16.57
2018-02-10T02:34:26.999Z,17.13
2018-02-10T02:36:55.227Z,15.30
2018-02-10T02:39:22.695Z,15.03
2018-02-10T02:41:50.160Z,14.30
2018-02-10T02:44:17.626Z,16.17
2018-02-10T02:46:45.100Z,15.03
2018-02-10T02:51:47.159Z,14.93
2018-02-10T02:54:14.622Z,15.33
2018-02-10T02:56:42.081Z,14.00
2018-02-10T02:59:09.548Z,15.20
2018-02-10T03:01:37.005Z,15.13
2018-02-10T03:04:04.469Z,16.60
2018-02-10T03:06:31.923Z,15.23
2018-02-10T03:08:59.403Z,15.20
2018-02-10T03:11:27.632Z,15.80
2018-02-10T03:13:55.111Z,14.67
2018-02-10T03:16:22.563Z,14.30
2018-02-10T03:18:50.028Z,13.20
2018-02-10T03:21:17.487Z,10.37
2018-02-10T03:23:44.945Z,12.10
2018-02-10T03:26:12.411Z,12.20
2018-02-10T03:28:39.867Z,12.83
2018-02-10T03:31:08.100Z,12.30
2018-02-10T03:33:36.331Z,10.80
2018-02-10T03:36:03.796Z,11.27
2018-02-10T03:38:32.024Z,12.07
2018-02-10T03:40:59.511Z,11.20
2018-02-10T03:43:26.964Z,11.67
2018-02-10T03:45:54.439Z,11.80
2018-02-10T03:48:22.658Z,12.30
2018-02-10T03:50:50.138Z,10.70
2018-02-10T03:53:17.593Z,12.10
2018-02-10T03:55:45.063Z,11.30
2018-02-10T03:58:12.523Z,11.67
2018-02-10T04:00:39.988Z,11.03
2018-02-10T04:03:08.223Z,11.80
2018-02-10T04:05:35.692Z,11.10
2018-02-10T04:08:03.146Z,11.30
2018-02-10T04:10:30.615Z,11.00
2018-02-10T04:12:58.080Z,12.17
2018-02-10T04:15:25.540Z,11.00
2018-02-10T04:17:53.015Z,11.50
2018-02-10T04:20:20.480Z,11.37
2018-02-10T04:22:48.712Z,12.60
2018-02-10T04:25:16.224Z,11.97
2018-02-10T04:27:44.452Z,11.93
2018-02-10T04:30:11.919Z,11.13
2018-02-10T04:32:39.391Z,10.13
2018-02-10T04:35:07.617Z,10.60
2018-02-10T04:37:35.087Z,11.27
2018-02-10T04:40:03.320Z,9.43
2018-02-10T04:42:30.788Z,10.23
2018-02-10T04:44:58.251Z,11.77
2018-02-10T04:47:25.726Z,10.80
2018-02-10T04:49:53.188Z,10.27
2018-02-10T04:54:54.567Z,12.00
2018-02-10T04:57:22.040Z,10.67
2018-02-10T04:59:49.514Z,10.80
2018-02-10T05:02:17.748Z,10.83
2018-02-10T05:04:45.212Z,11.60
2018-02-10T05:07:12.687Z,11.07
2018-02-10T05:09:40.144Z,11.10
2018-02-10T05:12:07.614Z,11.00
2018-02-10T05:14:35.063Z,10.80
2018-02-10T05:17:02.550Z,10.47
2018-02-10T05:19:30.783Z,11.60
2018-02-10T05:21:58.247Z,11.30
2018-02-10T05:24:25.706Z,10.97
2018-02-10T05:26:53.175Z,10.70
2018-02-10T05:29:20.631Z,11.23
2018-02-10T05:31:48.105Z,10.80
2018-02-10T05:34:16.341Z,11.00
2018-02-10T05:36:43.798Z,11.23
2018-02-10T05:39:11.246Z,9.37
2018-02-10T05:41:38.736Z,11.07
2018-02-10T05:44:06.197Z,11.00
2018-02-10T05:46:33.669Z,10.37
2018-02-10T05:49:01.894Z,9.60
2018-02-10T05:51:29.355Z,10.00
2018-02-10T05:53:56.831Z,10.10
2018-02-10T05:56:24.279Z,9.97
2018-02-10T05:58:51.740Z,10.00
2018-02-10T06:01:19.223Z,10.53
2018-02-10T06:03:46.671Z,9.90
2018-02-10T06:06:14.131Z,9.63
2018-02-10T06:08:41.605Z,10.23
2018-02-10T06:11:09.820Z,10.03
2018-02-10T06:13:37.291Z,9.40
2018-02-10T06:16:04.759Z,8.93
2018-02-10T06:18:32.219Z,7.90
2018-02-10T06:20:59.671Z,9.20
2018-02-10T06:23:27.137Z,9.50
2018-02-10T06:25:54.596Z,8.97
2018-02-10T06:28:22.064Z,8.87
2018-02-10T06:30:49.516Z,8.80
2018-02-10T06:33:16.989Z,8.40
2018-02-10T06:35:45.229Z,8.80
2018-02-10T06:38:12.720Z,8.23
2018-02-10T06:40:40.169Z,8.17
2018-02-10T06:43:07.641Z,8.20
2018-02-10T06:45:35.872Z,8.63
2018-02-10T06:48:03.341Z,8.33
2018-02-10T06:50:30.807Z,9.40
2018-02-10T06:52:58.297Z,9.60
2018-02-10T06:55:26.511Z,7.47
2018-02-10T06:57:53.987Z,7.40
2018-02-10T07:00:21.448Z,8.10
2018-02-10T07:02:49.296Z,9.13
2018-02-10T07:05:16.751Z,8.40
2018-02-10T07:07:44.226Z,8.80
2018-02-10T07:10:11.764Z,8.07
2018-02-10T07:12:39.633Z,8.00
2018-02-10T07:15:07.141Z,7.73
2018-02-10T07:17:35.356Z,7.90
2018-02-10T07:20:04.109Z,8.17
2018-02-10T07:22:32.337Z,7.90
2018-02-10T07:24:59.819Z,7.90
2018-02-10T07:27:27.473Z,7.70
2018-02-10T07:29:55.033Z,8.50
2018-02-10T07:32:22.663Z,8.97
2018-02-10T07:34:50.534Z,8.53
2018-02-10T07:37:18.244Z,7.63
2018-02-10T07:39:45.824Z,8.57
2018-02-10T07:42:13.335Z,8.30
2018-02-10T07:44:40.829Z,8.40
2018-02-10T07:47:09.047Z,9.33
2018-02-10T07:49:36.510Z,8.30
2018-02-10T07:52:03.966Z,8.70
2018-02-10T07:54:31.511Z,8.00
2018-02-10T07:56:58.987Z,8.40
2018-02-10T07:59:26.465Z,7.67
2018-02-10T08:01:54.033Z,7.97
2018-02-10T08:04:21.504Z,7.70
2018-02-10T08:06:49.050Z,8.60
2018-02-10T08:09:16.708Z,8.37
2018-02-10T08:11:44.272Z,8.00
2018-02-10T08:14:11.856Z,7.30
2018-02-10T08:16:40.154Z,7.57
2018-02-10T08:19:07.847Z,7.00
2018-02-10T08:21:36.991Z,8.20
2018-02-10T08:24:05.304Z,7.37
2018-02-10T08:26:32.784Z,7.83
2018-02-10T08:29:00.244Z,7.97
2018-02-10T08:31:28.481Z,8.00
2018-02-10T08:33:55.954Z,8.00
2018-02-10T08:36:23.416Z,7.87
2018-02-10T08:38:50.874Z,6.33
2018-02-10T08:41:18.503Z,7.83
2018-02-10T08:43:45.970Z,7.93
2018-02-10T08:46:13.480Z,7.43
2018-02-10T08:48:40.996Z,7.90
2018-02-10T08:51:08.525Z,7.20
2018-02-10T08:53:36.754Z,7.17
2018-02-10T08:56:04.235Z,7.20
2018-02-10T08:58:42.698Z,7.80
2018-02-10T09:01:25.136Z,7.47
2018-02-10T09:03:53.863Z,7.13
2018-02-10T09:06:22.098Z,7.27
2018-02-10T09:08:49.575Z,7.40
2018-02-10T09:11:17.077Z,7.93
2018-02-10T09:13:52.015Z,7.70
2018-02-10T09:16:19.582Z,7.60
2018-02-10T09:18:47.098Z,6.30
2018-02-10T09:21:14.575Z,8.00
2018-02-10T09:23:43.068Z,9.47
2018-02-10T09:26:10.579Z,6.53
2018-02-10T09:28:38.128Z,7.47
2018-02-10T09:31:05.645Z,6.70
2018-02-10T09:33:33.112Z,6.93
2018-02-10T09:36:00.575Z,6.60
2018-02-10T09:38:28.532Z,7.07
2018-02-10T09:40:55.991Z,7.00
2018-02-10T09:43:23.558Z,6.53
2018-02-10T09:45:51.131Z,6.47
2018-02-10T09:48:18.611Z,9.13
2018-02-10T09:50:46.353Z,7.93
2018-02-10T09:53:13.901Z,6.83
2018-02-10T09:55:41.370Z,5.63
2018-02-10T09:58:09.090Z,6.63
2018-02-10T10:00:37.385Z,6.50
2018-02-10T10:03:04.873Z,7.83
2018-02-10T10:05:32.337Z,8.03
2018-02-10T10:07:59.825Z,6.50
2018-02-10T10:10:27.284Z,6.77
2018-02-10T10:13:05.173Z,9.77
2018-02-10T10:15:32.680Z,8.10
2018-02-10T10:18:00.161Z,10.10
2018-02-10T10:20:27.794Z,8.73
2018-02-10T10:22:55.282Z,8.63
2018-02-10T10:25:22.959Z,9.00
2018-02-10T10:27:50.516Z,8.40
2018-02-10T10:30:18.034Z,8.87
2018-02-10T10:32:45.528Z,6.97
2018-02-10T10:35:13.130Z,7.77
2018-02-10T10:37:40.606Z,7.93
2018-02-10T10:40:09.042Z,10.00
2018-02-10T10:42:36.639Z,8.70
2018-02-10T10:45:04.924Z,9.73
2018-02-10T10:47:32.565Z,9.93
2018-02-10T10:50:00.098Z,9.33
2018-02-10T10:52:27.619Z,8.83
2018-02-10T10:54:55.127Z,7.07
2018-02-10T10:57:22.679Z,8.97
2018-02-10T10:59:50.128Z,8.80
2018-02-10T11:02:17.674Z,8.33
2018-02-10T11:04:45.227Z,8.83
2018-02-10T11:07:12.708Z,8.70
2018-02-10T11:09:40.188Z,9.20
2018-02-10T11:12:07.668Z,9.90
2018-02-10T11:14:35.246Z,9.03
2018-02-10T11:17:02.723Z,9.80
2018-02-10T11:19:30.191Z,9.13
2018-02-10T11:21:57.657Z,9.93
2018-02-10T11:24:25.124Z,9.20
2018-02-10T11:26:52.590Z,9.80
2018-02-10T11:29:20.053Z,9.77
2018-02-10T11:31:47.513Z,9.13
2018-02-10T11:34:15.736Z,9.73
2018-02-10T11:36:43.191Z,8.27
2018-02-10T11:39:10.659Z,9.23
2018-02-10T11:41:38.112Z,9.53
2018-02-10T11:44:05.582Z,9.70
2018-02-10T11:46:33.042Z,8.00
2018-02-10T11:49:00.523Z,10.40
2018-02-10T11:51:27.989Z,14.13
2018-02-10T11:54:01.253Z,9.87
2018-02-10T11:56:28.706Z,9.93
2018-02-10T11:58:56.184Z,11.50
2018-02-10T12:01:23.652Z,8.13
2018-02-10T12:03:51.123Z,8.20
2018-02-10T12:06:19.417Z,10.07
2018-02-10T12:08:46.826Z,9.80
2018-02-10T12:11:14.300Z,10.27
2018-02-10T12:13:41.768Z,9.37
2018-02-10T12:16:10.006Z,10.33
2018-02-10T12:18:37.472Z,8.90
2018-02-10T12:21:04.939Z,9.40
2018-02-10T12:23:32.398Z,8.97
2018-02-10T12:25:59.864Z,8.70
2018-02-10T12:28:27.331Z,10.10
2018-02-10T12:30:55.556Z,8.77
2018-02-10T12:33:23.003Z,8.20
2018-02-10T12:35:50.468Z,9.13
2018-02-10T12:38:17.919Z,8.63
2018-02-10T12:40:45.381Z,9.20
2018-02-10T12:43:12.835Z,8.50
2018-02-10T12:45:40.304Z,8.03
2018-02-10T12:48:13.399Z,8.40
2018-02-10T12:50:40.867Z,8.80
2018-02-10T12:53:08.324Z,8.60
2018-02-10T12:55:35.792Z,9.27
2018-02-10T12:58:03.244Z,9.30
2018-02-10T13:00:30.718Z,7.23
2018-02-10T13:02:58.176Z,8.27
2018-02-10T13:05:25.635Z,7.60
2018-02-10T13:07:53.865Z,8.40
2018-02-10T13:10:21.340Z,9.23
2018-02-10T13:12:48.792Z,8.90
2018-02-10T13:15:16.251Z,9.73
2018-02-10T13:17:43.730Z,8.80
2018-02-10T13:20:11.179Z,8.77
2018-02-10T13:22:38.647Z,8.90
2018-02-10T13:25:06.891Z,9.03
2018-02-10T13:27:34.360Z,9.33
2018-02-10T13:30:01.819Z,9.17
2018-02-10T13:32:29.281Z,8.77
2018-02-10T13:34:56.738Z,9.33
2018-02-10T13:37:24.200Z,11.67
2018-02-10T13:39:51.655Z,9.77
2018-02-10T13:42:20.753Z,8.20
2018-02-10T13:44:48.246Z,8.93
2018-02-10T13:47:16.484Z,9.00
2018-02-10T13:49:43.940Z,9.10
2018-02-10T13:52:11.410Z,8.33
2018-02-10T13:54:38.890Z,10.20
2018-02-10T13:57:07.116Z,7.20
2018-02-10T13:59:34.579Z,7.03
2018-02-10T14:02:02.056Z,7.77
2018-02-10T14:04:29.512Z,7.70
2018-02-10T14:06:56.979Z,9.00
2018-02-10T14:09:24.436Z,9.20
2018-02-10T14:11:51.903Z,6.97
2018-02-10T14:14:20.129Z,7.03
2018-02-10T14:16:47.592Z,8.37
2018-02-10T14:19:15.048Z,8.47
2018-02-10T14:21:42.520Z,8.23
2018-02-10T14:24:09.982Z,8.23
2018-02-10T14:26:37.474Z,7.77
2018-02-10T14:29:05.688Z,7.23
2018-02-10T14:31:33.138Z,10.17
2018-02-10T14:34:00.603Z,8.63
2018-02-10T14:36:28.063Z,8.30
2018-02-10T14:38:55.608Z,8.40
2018-02-10T14:43:56.912Z,7.67
2018-02-10T14:46:24.384Z,7.20
2018-02-10T14:48:51.847Z,6.70
2018-02-10T14:51:20.068Z,6.57
2018-02-10T14:53:47.559Z,7.13
2018-02-10T14:56:15.012Z,6.50
2018-02-10T14:58:42.475Z,6.00
2018-02-10T15:01:10.078Z,6.47
2018-02-10T15:03:37.623Z,6.23
2018-02-10T15:06:05.870Z,5.80
2018-02-10T15:08:33.482Z,6.50
2018-02-10T15:11:00.974Z,6.50
2018-02-10T15:13:28.476Z,6.57
2018-02-10T15:15:56.770Z,6.70
2018-02-10T15:18:24.268Z,6.53
2018-02-10T15:20:51.768Z,6.40
2018-02-10T15:23:20.015Z,6.07
2018-02-10T15:25:47.472Z,6.80
2018-02-10T15:28:15.538Z,6.80
2018-02-10T15:30:54.761Z,6.70
2018-02-10T15:33:34.143Z,6.77
2018-02-10T15:36:02.368Z,6.67
2018-02-10T15:38:29.832Z,6.53
2018-02-10T15:40:57.296Z,6.63
2018-02-10T15:43:27.797Z,6.23
2018-02-10T15:45:55.270Z,8.03
2018-02-10T15:48:22.756Z,7.80
2018-02-10T15:50:50.210Z,7.00
2018-02-10T15:53:17.714Z,6.27
2018-02-10T15:55:45.183Z,8.30
2018-02-10T15:58:12.662Z,6.70
2018-02-10T16:00:40.208Z,6.70
2018-02-10T16:03:07.690Z,7.40
2018-02-10T16:05:35.673Z,7.37
2018-02-10T16:08:03.142Z,7.00
2018-02-10T16:10:30.624Z,8.00
2018-02-10T16:12:58.083Z,9.33
2018-02-10T16:15:25.573Z,8.30
2018-02-10T16:17:53.030Z,7.00
2018-02-10T16:20:20.499Z,7.30
2018-02-10T16:22:47.957Z,6.60
2018-02-10T16:25:15.423Z,7.70
2018-02-10T16:27:42.878Z,7.37
2018-02-10T16:30:10.348Z,6.90
2018-02-10T16:32:37.823Z,7.53
2018-02-10T16:35:06.062Z,8.20
2018-02-10T16:37:33.511Z,7.37
2018-02-10T16:40:00.973Z,6.60
2018-02-10T16:42:28.436Z,6.47
2018-02-10T16:44:55.908Z,7.50
2018-02-10T16:47:23.364Z,6.27
2018-02-10T16:49:50.853Z,6.37
2018-02-10T16:52:19.068Z,6.07
2018-02-10T16:54:46.536Z,6.20
2018-02-10T16:57:14.006Z,7.97
2018-02-10T16:59:41.470Z,6.87
2018-02-10T17:02:08.929Z,7.20
2018-02-10T17:04:36.398Z,7.80
2018-02-10T17:07:03.846Z,6.23
2018-02-10T17:09:31.306Z,7.33
2018-02-10T17:11:58.770Z,7.13
2018-02-10T17:14:26.231Z,7.57
2018-02-10T17:16:54.477Z,8.53
2018-02-10T17:19:21.936Z,7.80
2018-02-10T17:21:49.419Z,8.00
2018-02-10T17:24:16.926Z,7.83
2018-02-10T17:26:44.424Z,8.00
2018-02-10T17:29:11.877Z,8.73
2018-02-10T17:31:39.348Z,8.00
2018-02-10T17:34:06.804Z,8.77
2018-02-10T17:36:34.271Z,8.17
2018-02-10T17:39:02.497Z,7.60
2018-02-10T17:41:29.959Z,6.97
2018-02-10T17:43:57.421Z,7.50
2018-02-10T17:46:24.883Z,7.67
2018-02-10T17:48:52.349Z,7.83
2018-02-10T17:51:19.815Z,10.00
2018-02-10T17:53:47.280Z,7.70
2018-02-10T17:56:14.748Z,7.47
2018-02-10T17:58:42.970Z,7.50
2018-02-10T18:01:10.439Z,8.40
2018-02-10T18:03:37.899Z,8.90
2018-02-10T18:06:05.371Z,8.67
2018-02-10T18:08:32.821Z,8.10
2018-02-10T18:11:00.285Z,9.00
2018-02-10T18:13:27.739Z,7.37
2018-02-10T18:15:55.217Z,8.03
2018-02-10T18:18:22.680Z,9.50
2018-02-10T18:20:50.160Z,10.33
2018-02-10T18:23:17.623Z,7.43
2018-02-10T18:25:45.094Z,6.77
2018-02-10T18:28:12.568Z,8.13
2018-02-10T18:30:40.019Z,6.60
2018-02-10T18:33:07.487Z,7.63
2018-02-10T18:35:34.944Z,6.63
2018-02-10T18:38:02.417Z,6.93
2018-02-10T18:40:29.878Z,6.80
2018-02-10T18:42:57.351Z,6.50
2018-02-10T18:45:24.821Z,5.80
2018-02-10T18:47:53.051Z,7.00
2018-02-10T18:50:20.500Z,6.10
2018-02-10T18:55:21.938Z,6.70
2018-02-10T18:57:50.165Z,5.67
2018-02-10T19:00:17.612Z,6.37
2018-02-10T19:02:45.071Z,5.30
2018-02-10T19:05:12.527Z,5.87
2018-02-10T19:07:40.009Z,5.80
2018-02-10T19:10:07.469Z,6.30
2018-02-10T19:12:34.948Z,5.53
2018-02-10T19:15:03.167Z,5.83
2018-02-10T19:17:30.628Z,5.13
2018-02-10T19:19:58.083Z,5.40
2018-02-10T19:22:25.539Z,5.27
2018-02-10T19:24:52.987Z,6.47
2018-02-10T19:27:20.487Z,4.97
2018-02-10T19:29:47.931Z,6.03
2018-02-10T19:32:15.397Z,5.67
2018-02-10T19:34:42.860Z,6.00
2018-02-10T19:37:10.321Z,6.63
2018-02-10T19:39:37.781Z,6.90
2018-02-10T19:42:05.244Z,6.40
2018-02-10T19:44:33.460Z,7.00
2018-02-10T19:47:00.935Z,5.23
2018-02-10T19:49:28.414Z,5.63
2018-02-10T19:51:55.867Z,5.70
2018-02-10T19:54:23.343Z,6.27
2018-02-10T19:56:50.809Z,4.80
2018-02-10T19:59:19.038Z,5.60
2018-02-10T20:01:46.504Z,6.00
2018-02-10T20:04:13.968Z,5.40
2018-02-10T20:06:41.424Z,6.50
2018-02-10T20:09:08.890Z,6.33
2018-02-10T20:11:36.343Z,5.27
2018-02-10T20:14:03.811Z,6.33
2018-02-10T20:16:31.272Z,6.10
2018-02-10T20:18:58.736Z,5.20
2018-02-10T20:21:26.192Z,6.00
2018-02-10T20:23:53.661Z,5.80
2018-02-10T20:26:21.878Z,5.13
2018-02-10T20:28:49.348Z,5.17
2018-02-10T20:31:16.785Z,5.40
2018-02-10T20:33:44.251Z,6.17
2018-02-10T20:36:11.707Z,5.47
2018-02-10T20:38:40.035Z,5.40
2018-02-10T20:41:08.261Z,5.97
2018-02-10T20:43:35.737Z,5.87
2018-02-10T20:46:03.204Z,5.80
2018-02-10T20:48:30.672Z,9.07
2018-02-10T20:50:58.132Z,6.47
2018-02-10T20:53:25.622Z,9.10
2018-02-10T20:55:53.082Z,6.13
2018-02-10T20:58:20.539Z,7.50
2018-02-10T21:00:48.008Z,6.10
2018-02-10T21:03:15.468Z,5.87
2018-02-10T21:05:42.936Z,5.87
2018-02-10T21:08:10.382Z,5.70
2018-02-10T21:10:37.853Z,8.20
2018-02-10T21:13:05.306Z,6.60
2018-02-10T21:15:32.773Z,5.10
2018-02-10T21:18:00.222Z,5.47
2018-02-10T21:20:27.689Z,6.00
2018-02-10T21:22:55.145Z,4.70
2018-02-10T21:25:22.613Z,5.73
2018-02-10T21:27:50.071Z,5.80
2018-02-10T21:30:17.542Z,6.70
2018-02-10T21:32:45.010Z,6.23
2018-02-10T21:35:12.478Z,5.70
2018-02-10T21:37:39.927Z,5.07
2018-02-10T21:40:07.396Z,5.80
2018-02-10T21:42:34.851Z,5.97
2018-02-10T21:45:02.328Z,5.57
2018-02-10T21:47:29.818Z,5.43
2018-02-10T21:49:57.255Z,5.80
2018-02-10T21:52:24.713Z,5.50
2018-02-10T21:54:52.200Z,6.17
2018-02-10T21:57:19.658Z,8.10
2018-02-10T21:59:47.123Z,7.67
2018-02-10T22:02:15.343Z,5.50
2018-02-10T22:04:42.807Z,6.40
2018-02-10T22:07:10.275Z,7.30
2018-02-10T22:09:37.723Z,6.07
2018-02-10T22:12:05.192Z,6.37
2018-02-10T22:14:32.660Z,8.00
2018-02-10T22:17:00.131Z,9.10
2018-02-10T22:19:27.600Z,8.80
2018-02-10T22:21:55.067Z,11.37
2018-02-10T22:24:22.532Z,9.40
2018-02-10T22:26:49.989Z,8.80
2018-02-10T22:29:17.456Z,9.10
2018-02-10T22:31:44.925Z,6.57
2018-02-10T22:34:13.182Z,7.40
2018-02-10T22:36:40.656Z,7.37
2018-02-10T22:39:08.885Z,6.87
2018-02-10T22:41:36.351Z,6.80
2018-02-10T22:44:03.825Z,7.53
2018-02-10T22:46:31.627Z,7.57
2018-02-10T22:48:59.135Z,7.73
2018-02-10T22:51:26.603Z,6.30
2018-02-10T22:53:54.088Z,7.50
2018-02-10T22:56:21.526Z,7.07
2018-02-10T22:58:48.995Z,7.13
2018-02-10T23:01:16.455Z,6.47
2018-02-10T23:03:44.683Z,6.47
2018-02-10T23:06:12.176Z,6.90
2018-02-10T23:08:39.626Z,7.67
2018-02-10T23:11:07.181Z,7.07
2018-02-10T23:13:34.652Z,6.80
2018-02-10T23:16:02.100Z,6.50
2018-02-10T23:18:29.568Z,6.63
2018-02-10T23:20:57.127Z,6.40
2018-02-10T23:23:26.110Z,7.30
2018-02-10T23:25:53.568Z,7.63
2018-02-10T23:28:21.028Z,6.93
2018-02-10T23:30:48.491Z,7.13
2018-02-10T23:33:15.947Z,6.23
2018-02-10T23:35:43.420Z,7.40
2018-02-10T23:38:10.891Z,7.20
2018-02-10T23:40:39.107Z,6.83
2018-02-10T23:43:06.563Z,6.17
2018-02-10T23:45:34.045Z,7.83
2018-02-10T23:48:01.508Z,6.50
2018-02-10T23:50:28.971Z,6.47
2018-02-10T23:52:56.441Z,7.27
2018-02-10T23:55:24.660Z,7.23
2018-02-10T23:57:52.199Z,6.00
